createdAt,value
2023-02-15T00:00:12.137Z,65.25
2023-02-15T00:02:40.363Z,64.00
2023-02-15T00:05:08.246Z,60.55
2023-02-15T00:07:35.577Z,71.57
2023-02-15T00:10:03.021Z,73.60
2023-02-15T00:12:30.352Z,63.83
2023-02-15T00:14:57.608Z,65.47
2023-02-15T00:17:25.243Z,65.25
2023-02-15T00:19:52.883Z,74.43
2023-02-15T00:22:20.851Z,62.90
2023-02-15T00:24:48.128Z,64.07
2023-02-15T00:27:15.393Z,74.50
2023-02-15T00:29:42.651Z,63.30
2023-02-15T00:32:09.886Z,72.45
2023-02-15T00:34:37.235Z,76.47
2023-02-15T00:37:04.548Z,68.50
2023-02-15T00:39:32.249Z,77.18
2023-02-15T00:41:59.904Z,78.10
2023-02-15T00:44:27.240Z,75.03
2023-02-15T00:46:57.402Z,80.05
2023-02-15T00:49:24.682Z,89.10
2023-02-15T00:51:51.989Z,100.00
2023-02-15T00:54:19.772Z,86.00
2023-02-15T00:56:47.390Z,71.07
2023-02-15T00:59:14.664Z,75.38
2023-02-15T01:01:42.045Z,81.55
2023-02-15T01:04:09.409Z,74.07
2023-02-15T01:06:37.116Z,72.68
2023-02-15T01:09:04.466Z,81.57
2023-02-15T01:11:31.766Z,78.53
2023-02-15T01:13:59.425Z,77.00
2023-02-15T01:16:28.932Z,82.18
2023-02-15T01:18:56.982Z,78.40
2023-02-15T01:21:28.171Z,75.80
2023-02-15T01:23:55.508Z,78.22
2023-02-15T01:26:22.835Z,81.28
2023-02-15T01:28:50.532Z,77.00
2023-02-15T01:31:20.141Z,81.78
2023-02-15T01:33:48.435Z,74.95
2023-02-15T01:36:18.266Z,78.85
2023-02-15T01:38:45.879Z,76.47
2023-02-15T01:41:25.479Z,74.13
2023-02-15T01:44:00.666Z,69.10
2023-02-15T01:46:33.442Z,77.85
2023-02-15T01:49:11.534Z,69.75
2023-02-15T01:51:42.142Z,68.55
2023-02-15T01:54:16.927Z,70.00
2023-02-15T01:56:44.700Z,71.55
2023-02-15T01:59:17.255Z,90.97
2023-02-15T02:01:45.472Z,80.40
2023-02-15T02:04:25.939Z,91.65
2023-02-15T02:06:54.123Z,70.97
2023-02-15T02:09:21.411Z,84.45
2023-02-15T02:11:49.518Z,79.60
2023-02-15T02:14:17.658Z,80.68
2023-02-15T02:17:11.488Z,77.07
2023-02-15T02:20:01.680Z,82.50
2023-02-15T02:22:49.789Z,80.07
2023-02-15T02:25:24.883Z,78.97
2023-02-15T02:28:19.100Z,77.30
2023-02-15T02:31:04.540Z,80.55
2023-02-15T02:33:42.150Z,84.93
2023-02-15T02:36:18.537Z,81.75
2023-02-15T02:39:17.749Z,86.43
2023-02-15T02:41:58.245Z,106.80
2023-02-15T02:45:06.327Z,93.28
2023-02-15T02:47:40.972Z,104.57
2023-02-15T02:50:16.438Z,86.60
2023-02-15T02:52:50.813Z,100.28
2023-02-15T02:55:23.807Z,94.30
2023-02-15T02:58:01.887Z,89.85
2023-02-15T03:00:33.886Z,96.25
2023-02-15T03:03:05.845Z,97.90
2023-02-15T03:05:36.723Z,85.35
2023-02-15T03:08:07.130Z,96.15
2023-02-15T03:10:37.606Z,94.43
2023-02-15T03:13:06.173Z,95.93
2023-02-15T03:15:57.608Z,94.63
2023-02-15T03:18:32.129Z,109.60
2023-02-15T03:21:02.561Z,103.47
2023-02-15T03:23:31.400Z,114.40
2023-02-15T03:26:03.390Z,89.00
2023-02-15T03:28:46.296Z,104.18
2023-02-15T03:31:16.637Z,86.20
2023-02-15T03:33:56.315Z,88.03
2023-02-15T03:37:08.242Z,85.88
2023-02-15T03:39:49.884Z,88.32
2023-02-15T03:42:34.008Z,94.38
2023-02-15T03:45:12.610Z,94.82
2023-02-15T03:47:45.856Z,87.68
2023-02-15T03:50:41.477Z,97.20
2023-02-15T03:53:14.488Z,93.60
2023-02-15T03:55:41.918Z,98.05
2023-02-15T03:58:27.769Z,103.32
2023-02-15T04:01:28.957Z,110.95
2023-02-15T04:04:06.096Z,125.82
2023-02-15T04:09:19.206Z,123.55
2023-02-15T04:11:46.722Z,125.05
2023-02-15T04:14:32.484Z,109.63
2023-02-15T04:16:59.758Z,131.38
2023-02-15T04:19:45.921Z,103.57
2023-02-15T04:22:31.805Z,87.80
2023-02-15T04:25:14.280Z,87.63
2023-02-15T04:27:44.527Z,90.50
2023-02-15T04:30:13.475Z,94.07
2023-02-15T04:32:40.867Z,96.78
2023-02-15T04:35:08.750Z,104.85
2023-02-15T04:37:36.338Z,95.22
2023-02-15T04:40:05.226Z,106.75
2023-02-15T04:42:32.664Z,119.65
2023-02-15T04:44:59.964Z,116.15
2023-02-15T04:47:27.496Z,125.75
2023-02-15T04:49:56.329Z,126.85
2023-02-15T04:52:25.486Z,141.00
2023-02-15T04:54:52.746Z,151.75
2023-02-15T04:57:20.029Z,140.00
2023-02-15T04:59:47.255Z,136.75
2023-02-15T05:02:14.622Z,135.23
2023-02-15T05:04:41.843Z,141.38
2023-02-15T05:07:09.560Z,156.63
2023-02-15T05:09:36.770Z,135.63
2023-02-15T05:12:04.292Z,116.90
2023-02-15T05:14:31.553Z,84.75
2023-02-15T05:17:01.839Z,89.85
2023-02-15T05:19:29.120Z,84.43
2023-02-15T05:21:56.982Z,86.82
2023-02-15T05:24:43.047Z,86.50
2023-02-15T05:27:31.941Z,94.82
2023-02-15T05:29:59.303Z,85.63
2023-02-15T05:32:27.197Z,96.50
2023-02-15T05:34:54.359Z,107.68
2023-02-15T05:37:21.679Z,124.55
2023-02-15T05:39:48.939Z,116.78
2023-02-15T05:42:16.209Z,105.10
2023-02-15T05:44:43.509Z,115.72
2023-02-15T05:47:10.739Z,116.30
2023-02-15T05:49:38.067Z,101.75
2023-02-15T05:52:05.572Z,115.93
2023-02-15T05:54:32.886Z,125.60
2023-02-15T05:57:00.206Z,121.32
2023-02-15T05:59:27.453Z,115.25
2023-02-15T06:01:54.755Z,119.35
2023-02-15T06:04:22.040Z,122.80
2023-02-15T06:06:49.328Z,140.60
2023-02-15T06:09:19.235Z,136.45
2023-02-15T06:11:47.164Z,121.60
2023-02-15T06:14:14.471Z,128.10
2023-02-15T06:16:41.914Z,128.48
2023-02-15T06:19:09.199Z,129.25
2023-02-15T06:21:36.477Z,119.72
2023-02-15T06:24:03.990Z,141.48
2023-02-15T06:26:31.295Z,131.23
2023-02-15T06:28:58.566Z,155.25
2023-02-15T06:31:25.941Z,143.60
2023-02-15T06:33:53.325Z,130.27
2023-02-15T06:36:20.587Z,127.78
2023-02-15T06:38:47.815Z,129.48
2023-02-15T06:41:15.080Z,130.75
2023-02-15T06:43:42.446Z,125.45
2023-02-15T06:46:09.795Z,125.38
2023-02-15T06:48:37.086Z,128.02
2023-02-15T06:51:04.475Z,129.27
2023-02-15T06:53:31.830Z,130.55
2023-02-15T06:56:09.833Z,118.55
2023-02-15T06:58:38.403Z,129.60
2023-02-15T07:01:06.243Z,133.02
2023-02-15T07:03:34.021Z,139.75
2023-02-15T07:06:04.289Z,132.40
2023-02-15T07:08:31.736Z,135.55
2023-02-15T07:11:19.085Z,143.35
2023-02-15T07:13:47.028Z,143.25
2023-02-15T07:16:14.840Z,140.93
2023-02-15T07:18:42.153Z,131.50
2023-02-15T07:21:09.462Z,128.45
2023-02-15T07:23:38.380Z,118.95
2023-02-15T07:26:07.016Z,119.28
2023-02-15T07:28:35.586Z,119.65
2023-02-15T07:31:06.656Z,117.47
2023-02-15T07:33:35.054Z,128.35
2023-02-15T07:36:04.854Z,126.25
2023-02-15T07:38:35.586Z,121.60
2023-02-15T07:41:05.426Z,120.13
2023-02-15T07:43:35.248Z,119.68
2023-02-15T07:46:08.821Z,128.82
2023-02-15T07:48:37.086Z,129.13
2023-02-15T07:51:06.420Z,138.43
2023-02-15T07:53:34.975Z,132.50
2023-02-15T07:56:07.098Z,121.80
2023-02-15T07:58:53.668Z,114.93
2023-02-15T08:01:22.461Z,113.75
2023-02-15T08:03:50.630Z,110.32
2023-02-15T08:06:18.869Z,113.72
2023-02-15T08:08:47.459Z,106.45
2023-02-15T08:11:26.424Z,111.82
2023-02-15T08:14:03.563Z,114.88
2023-02-15T08:16:35.963Z,99.53
2023-02-15T08:19:08.039Z,101.82
2023-02-15T08:21:37.126Z,100.05
2023-02-15T08:24:05.931Z,102.07
2023-02-15T08:26:34.281Z,90.90
2023-02-15T08:29:02.360Z,94.20
2023-02-15T08:31:30.382Z,90.68
2023-02-15T08:33:58.168Z,93.97
2023-02-15T08:36:28.662Z,89.10
2023-02-15T08:38:59.242Z,88.18
2023-02-15T08:41:30.672Z,79.88
2023-02-15T08:44:00.879Z,75.95
2023-02-15T08:46:31.133Z,90.82
2023-02-15T08:48:59.065Z,80.22
2023-02-15T08:51:28.819Z,70.65
2023-02-15T08:53:59.312Z,76.97
2023-02-15T08:56:33.596Z,71.22
2023-02-15T08:59:01.508Z,83.38
2023-02-15T09:01:30.921Z,72.55
2023-02-15T09:04:01.098Z,66.38
2023-02-15T09:06:29.198Z,74.97
2023-02-15T09:08:57.666Z,71.80
2023-02-15T09:11:27.710Z,80.65
2023-02-15T09:13:57.466Z,74.03
2023-02-15T09:16:27.000Z,68.18
2023-02-15T09:18:55.374Z,68.10
2023-02-15T09:21:24.987Z,76.32
2023-02-15T09:23:56.230Z,65.05
2023-02-15T09:26:25.021Z,66.18
2023-02-15T09:28:56.576Z,72.22
2023-02-15T09:31:32.224Z,54.47
2023-02-15T09:34:03.963Z,70.03
2023-02-15T09:36:34.597Z,66.82
2023-02-15T09:39:28.335Z,73.10
2023-02-15T09:42:29.198Z,74.10
2023-02-15T09:45:41.192Z,65.05
2023-02-15T09:48:19.870Z,58.75
2023-02-15T09:51:26.155Z,63.75
2023-02-15T09:53:59.361Z,70.57
2023-02-15T09:56:38.454Z,66.80
2023-02-15T09:59:05.819Z,63.58
2023-02-15T10:01:57.970Z,84.38
2023-02-15T10:04:47.969Z,48.88
2023-02-15T10:07:36.697Z,59.22
2023-02-15T10:10:20.292Z,67.53
2023-02-15T10:13:05.631Z,70.65
2023-02-15T10:16:13.979Z,70.45
2023-02-15T10:18:50.404Z,57.42
2023-02-15T10:21:49.974Z,59.35
2023-02-15T10:24:23.251Z,58.53
2023-02-15T10:26:50.779Z,80.72
2023-02-15T10:29:38.656Z,62.22
2023-02-15T10:32:17.798Z,72.43
2023-02-15T10:35:04.194Z,54.67
2023-02-15T10:38:07.778Z,58.78
2023-02-15T10:40:52.446Z,59.22
2023-02-15T10:43:44.544Z,55.72
2023-02-15T10:46:45.611Z,57.67
2023-02-15T10:49:24.917Z,50.30
2023-02-15T10:52:37.440Z,59.47
2023-02-15T10:55:23.641Z,51.78
2023-02-15T10:58:27.779Z,47.70
2023-02-15T11:01:23.234Z,43.42
2023-02-15T11:04:22.031Z,52.30
2023-02-15T11:06:57.189Z,44.47
2023-02-15T11:09:30.418Z,47.38
2023-02-15T11:12:01.461Z,41.13
2023-02-15T11:14:38.706Z,48.35
2023-02-15T11:19:48.634Z,48.15
2023-02-15T11:22:17.802Z,49.25
2023-02-15T11:24:47.712Z,39.75
2023-02-15T11:27:24.273Z,43.10
2023-02-15T11:30:01.611Z,36.55
2023-02-15T11:32:33.388Z,48.75
2023-02-15T11:35:12.978Z,46.60
2023-02-15T11:37:52.417Z,45.63
2023-02-15T11:40:34.191Z,39.58
2023-02-15T11:43:16.395Z,34.63
2023-02-15T11:45:46.236Z,40.72
2023-02-15T11:48:15.440Z,26.83
2023-02-15T11:50:45.167Z,35.63
2023-02-15T11:53:19.370Z,31.23
2023-02-15T11:55:49.182Z,40.58
2023-02-15T11:58:16.464Z,28.75
2023-02-15T12:00:46.830Z,34.25
2023-02-15T12:03:24.422Z,30.63
2023-02-15T12:05:58.582Z,33.63
2023-02-15T12:08:30.307Z,30.33
2023-02-15T12:11:06.941Z,42.13
2023-02-15T12:13:34.340Z,37.75
2023-02-15T12:16:12.551Z,31.75
2023-02-15T12:18:45.690Z,42.20
2023-02-15T12:21:27.500Z,30.80
2023-02-15T12:23:59.206Z,37.35
2023-02-15T12:26:32.349Z,27.63
2023-02-15T12:29:21.671Z,34.40
2023-02-15T12:31:52.743Z,26.77
2023-02-15T12:34:27.568Z,36.15
2023-02-15T12:37:01.188Z,18.30
2023-02-15T12:39:30.891Z,32.15
2023-02-15T12:42:15.613Z,34.92
2023-02-15T12:44:55.967Z,28.77
2023-02-15T12:47:28.908Z,28.20
2023-02-15T12:50:12.195Z,28.67
2023-02-15T12:52:40.433Z,30.02
2023-02-15T12:55:23.103Z,33.60
2023-02-15T12:58:05.412Z,22.35
2023-02-15T13:00:32.951Z,24.42
2023-02-15T13:03:01.405Z,30.67
2023-02-15T13:05:37.471Z,27.00
2023-02-15T13:08:15.623Z,25.75
2023-02-15T13:10:55.682Z,33.83
2023-02-15T13:13:32.306Z,23.63
2023-02-15T13:16:10.618Z,28.40
2023-02-15T13:18:40.548Z,26.13
2023-02-15T13:21:31.251Z,30.48
2023-02-15T13:24:07.241Z,33.25
2023-02-15T13:26:35.967Z,29.92
2023-02-15T13:29:36.152Z,23.20
2023-02-15T13:32:16.433Z,29.90
2023-02-15T13:34:43.809Z,20.33
2023-02-15T13:37:27.234Z,24.10
2023-02-15T13:40:19.277Z,19.27
2023-02-15T13:43:11.444Z,41.90
2023-02-15T13:46:00.193Z,23.42
2023-02-15T13:48:46.900Z,26.80
2023-02-15T13:51:54.660Z,28.27
2023-02-15T13:54:30.004Z,32.83
2023-02-15T13:57:12.488Z,19.00
2023-02-15T14:00:05.115Z,24.60
2023-02-15T14:03:01.841Z,42.83
2023-02-15T14:06:04.080Z,35.20
2023-02-15T14:08:57.769Z,27.55
2023-02-15T14:11:38.817Z,19.00
2023-02-15T14:14:48.516Z,21.70
2023-02-15T14:17:28.222Z,25.20
2023-02-15T14:20:07.425Z,25.20
2023-02-15T14:22:45.272Z,31.67
2023-02-15T14:25:33.508Z,24.38
2023-02-15T14:28:12.341Z,25.60
2023-02-15T14:30:45.473Z,27.95
2023-02-15T14:33:16.426Z,14.70
2023-02-15T14:35:44.793Z,21.17
2023-02-15T14:38:39.343Z,24.42
2023-02-15T14:41:41.371Z,26.70
2023-02-15T14:44:19.356Z,24.60
2023-02-15T14:47:02.268Z,17.35
2023-02-15T14:49:36.597Z,18.60
2023-02-15T14:52:09.448Z,21.90
2023-02-15T14:54:36.815Z,18.33
2023-02-15T14:57:04.056Z,22.92
2023-02-15T15:00:02.235Z,20.48
2023-02-15T15:02:49.892Z,16.75
2023-02-15T15:05:30.650Z,26.55
2023-02-15T15:08:00.715Z,26.17
2023-02-15T15:10:47.152Z,23.05
2023-02-15T15:13:32.522Z,20.23
2023-02-15T15:16:37.078Z,18.35
2023-02-15T15:19:09.977Z,32.72
2023-02-15T15:21:49.678Z,26.48
2023-02-15T15:24:39.139Z,20.30
2023-02-15T15:27:40.667Z,31.85
2023-02-15T15:30:20.414Z,31.10
2023-02-15T15:32:53.957Z,24.27
2023-02-15T15:35:58.992Z,20.17
2023-02-15T15:39:01.467Z,21.42
2023-02-15T15:41:44.852Z,15.23
2023-02-15T15:44:34.507Z,34.35
2023-02-15T15:47:27.905Z,19.60
2023-02-15T15:49:59.948Z,11.45
2023-02-15T15:52:29.638Z,22.70
2023-02-15T15:55:04.050Z,15.77
2023-02-15T15:57:39.182Z,25.88
2023-02-15T16:00:33.385Z,26.10
2023-02-15T16:03:00.899Z,17.52
2023-02-15T16:05:34.959Z,17.85
2023-02-15T16:08:02.360Z,21.17
2023-02-15T16:10:33.139Z,19.27
2023-02-15T16:13:01.187Z,14.95
2023-02-15T16:15:46.066Z,22.73
2023-02-15T16:18:18.372Z,19.70
2023-02-15T16:20:57.974Z,15.07
2023-02-15T16:23:40.398Z,15.75
2023-02-15T16:26:16.838Z,26.70
2023-02-15T16:28:54.756Z,14.93
2023-02-15T16:31:23.476Z,25.50
2023-02-15T16:33:54.695Z,22.90
2023-02-15T16:36:28.884Z,27.15
2023-02-15T16:38:56.109Z,18.65
2023-02-15T16:41:31.116Z,23.38
2023-02-15T16:44:04.203Z,21.95
2023-02-15T16:46:34.579Z,31.90
2023-02-15T16:49:08.801Z,23.98
2023-02-15T16:51:37.001Z,33.42
2023-02-15T16:54:08.669Z,27.88
2023-02-15T16:56:37.284Z,21.10
2023-02-15T16:59:04.943Z,14.15
2023-02-15T17:01:33.659Z,24.80
2023-02-15T17:04:26.957Z,22.38
2023-02-15T17:07:07.441Z,21.25
2023-02-15T17:09:34.916Z,25.38
2023-02-15T17:12:03.168Z,36.90
2023-02-15T17:14:40.839Z,18.45
2023-02-15T17:17:14.010Z,22.58
2023-02-15T17:19:55.624Z,18.58
2023-02-15T17:22:27.864Z,25.48
2023-02-15T17:25:01.038Z,31.08
2023-02-15T17:27:32.026Z,28.75
2023-02-15T17:30:02.619Z,27.23
2023-02-15T17:32:32.833Z,28.63
2023-02-15T17:35:35.518Z,29.48
2023-02-15T17:38:18.083Z,40.75
2023-02-15T17:40:45.346Z,30.88
2023-02-15T17:43:12.620Z,28.38
2023-02-15T17:45:47.805Z,23.38
2023-02-15T17:48:25.227Z,24.00
2023-02-15T17:50:52.641Z,28.85
2023-02-15T17:53:20.695Z,20.48
2023-02-15T17:55:47.968Z,28.80
2023-02-15T17:58:17.202Z,27.63
2023-02-15T18:01:16.907Z,26.45
2023-02-15T18:04:08.368Z,23.65
2023-02-15T18:06:57.251Z,27.98
2023-02-15T18:09:43.965Z,28.00
2023-02-15T18:12:19.956Z,26.83
2023-02-15T18:14:47.669Z,32.65
2023-02-15T18:17:16.276Z,39.03
2023-02-15T18:19:45.624Z,26.75
2023-02-15T18:22:15.513Z,29.92
2023-02-15T18:24:43.975Z,22.02
2023-02-15T18:27:16.598Z,17.40
2023-02-15T18:29:43.951Z,34.95
2023-02-15T18:32:21.935Z,28.95
2023-02-15T18:34:49.748Z,23.10
2023-02-15T18:37:20.799Z,31.85
2023-02-15T18:39:50.290Z,25.15
2023-02-15T18:42:27.716Z,28.10
2023-02-15T18:44:57.968Z,31.70
2023-02-15T18:47:26.131Z,20.48
2023-02-15T18:49:53.628Z,27.00
2023-02-15T18:52:24.350Z,30.30
2023-02-15T18:54:55.239Z,30.20
2023-02-15T18:57:22.620Z,36.15
2023-02-15T18:59:49.933Z,18.83
2023-02-15T19:02:18.873Z,19.95
2023-02-15T19:04:46.904Z,36.65
2023-02-15T19:07:22.475Z,28.83
2023-02-15T19:09:54.029Z,31.48
2023-02-15T19:12:21.353Z,28.83
2023-02-15T19:14:48.801Z,24.02
2023-02-15T19:17:19.306Z,34.65
2023-02-15T19:19:47.764Z,20.05
2023-02-15T19:22:27.725Z,27.83
2023-02-15T19:25:00.498Z,29.33
2023-02-15T19:27:31.927Z,38.88
2023-02-15T19:30:01.311Z,43.70
2023-02-15T19:32:30.505Z,52.38
2023-02-15T19:34:58.089Z,36.30
2023-02-15T19:37:40.240Z,38.33
2023-02-15T19:40:19.159Z,38.05
2023-02-15T19:45:18.565Z,29.15
2023-02-15T19:47:48.055Z,31.17
2023-02-15T19:50:20.678Z,32.63
2023-02-15T19:52:48.785Z,31.38
2023-02-15T19:55:27.932Z,17.92
2023-02-15T19:57:56.682Z,40.45
2023-02-15T20:00:26.516Z,38.35
2023-02-15T20:02:55.464Z,39.58
2023-02-15T20:05:23.168Z,34.75
2023-02-15T20:07:53.761Z,37.67
2023-02-15T20:10:30.063Z,22.58
2023-02-15T20:12:58.396Z,40.53
2023-02-15T20:15:31.955Z,29.55
2023-02-15T20:18:02.708Z,53.58
2023-02-15T20:20:50.801Z,44.25
2023-02-15T20:23:24.673Z,40.65
2023-02-15T20:25:52.691Z,29.30
2023-02-15T20:28:26.001Z,34.15
2023-02-15T20:30:53.798Z,45.28
2023-02-15T20:33:22.880Z,44.40
2023-02-15T20:35:51.033Z,24.30
2023-02-15T20:38:28.274Z,29.00
2023-02-15T20:43:42.709Z,35.72
2023-02-15T20:46:10.060Z,44.22
2023-02-15T20:48:37.494Z,31.38
2023-02-15T20:51:05.554Z,57.40
2023-02-15T20:53:33.036Z,41.60
2023-02-15T20:56:00.375Z,34.08
2023-02-15T20:58:30.022Z,55.35
2023-02-15T21:00:58.896Z,45.65
2023-02-15T21:03:30.716Z,49.10
2023-02-15T21:05:59.124Z,51.08
2023-02-15T21:08:27.254Z,42.25
2023-02-15T21:10:54.991Z,51.55
2023-02-15T21:13:30.355Z,49.25
2023-02-15T21:15:58.248Z,46.30
2023-02-15T21:18:33.956Z,57.78
2023-02-15T21:21:04.544Z,46.33
2023-02-15T21:23:38.708Z,44.72
2023-02-15T21:26:12.815Z,68.00
2023-02-15T21:28:41.295Z,59.92
2023-02-15T21:31:21.505Z,58.80
2023-02-15T21:33:49.003Z,43.70
2023-02-15T21:36:22.136Z,70.75
2023-02-15T21:38:50.537Z,76.57
2023-02-15T21:41:39.421Z,61.90
2023-02-15T21:44:45.493Z,60.67
2023-02-15T21:47:45.955Z,66.68
2023-02-15T21:50:40.137Z,54.85
2023-02-15T21:53:11.949Z,53.45
2023-02-15T21:55:39.265Z,26.75
2023-02-15T21:58:06.542Z,80.30
2023-02-15T22:00:34.071Z,48.10
2023-02-15T22:03:02.101Z,69.47
2023-02-15T22:05:34.226Z,58.78
2023-02-15T22:08:02.001Z,50.45
2023-02-15T22:10:31.662Z,64.63
2023-02-15T22:13:03.316Z,63.67
2023-02-15T22:15:36.617Z,60.53
2023-02-15T22:18:04.992Z,51.53
2023-02-15T22:20:32.311Z,53.10
2023-02-15T22:22:59.656Z,68.05
2023-02-15T22:25:27.213Z,50.72
2023-02-15T22:27:55.195Z,66.45
2023-02-15T22:30:37.191Z,39.20
2023-02-15T22:33:04.536Z,56.15
2023-02-15T22:35:34.290Z,64.25
2023-02-15T22:38:01.762Z,62.17
2023-02-15T22:40:32.151Z,55.88
2023-02-15T22:43:04.902Z,53.53
2023-02-15T22:45:33.537Z,66.47
2023-02-15T22:48:01.245Z,56.10
2023-02-15T22:50:32.239Z,55.05
2023-02-15T22:53:01.367Z,63.03
2023-02-15T22:55:32.257Z,61.47
2023-02-15T22:58:00.146Z,61.10
2023-02-15T23:00:38.215Z,56.30
2023-02-15T23:03:16.730Z,56.25
2023-02-15T23:05:44.949Z,45.80
2023-02-15T23:08:12.599Z,53.60
2023-02-15T23:10:41.328Z,67.50
2023-02-15T23:13:24.934Z,59.38
2023-02-15T23:15:57.609Z,58.55
2023-02-15T23:18:40.566Z,63.63
2023-02-15T23:21:26.731Z,48.10
2023-02-15T23:23:57.719Z,63.58
2023-02-15T23:26:28.732Z,51.65
2023-02-15T23:28:58.428Z,51.13
2023-02-15T23:31:34.658Z,46.00
2023-02-15T23:34:07.129Z,45.93
2023-02-15T23:36:38.975Z,48.75
2023-02-15T23:39:40.303Z,50.75
2023-02-15T23:42:18.824Z,47.03
2023-02-15T23:44:47.899Z,51.25
2023-02-15T23:47:47.147Z,47.15
2023-02-15T23:50:26.070Z,57.20
2023-02-15T23:52:55.255Z,58.75
2023-02-15T23:55:28.230Z,53.17
2023-02-15T23:57:55.543Z,55.42
